Ames, Iowa
Current Conditions -  °F | °C
As of 9:53 AM on Friday 21 Nov 2014 (Local Time) from KAMW Reporting Station
Clear Clear  
Wind Chill:   Ceiling: Unl
Heat Index: 21°   Visibility: 10mi
Dew Point: 13°   Wind: 12mph
Humidity: 71%   Direction: 150°SSE
Pressure: 30.28"   Gusts: NA
Location:  42.03°N, 93.62°W
Report Text: KAMW 211553Z AUTO 15010KT 10SM CLR M06/M11 A3028 RMK AO2 SLP270 T10611106
Loading
Personal Weather Stations






























Interactive Weather Map New forecast layout! Learn more

10-Day Weather Forecast

Advertisements
Track Severe Weather on mobile